createdAt,value
2017-06-29T00:00:46.651Z,69.50
2017-06-29T00:03:15.239Z,69.50
2017-06-29T00:05:43.283Z,69.70
2017-06-29T00:08:11.105Z,69.90
2017-06-29T00:10:40.183Z,69.90
2017-06-29T00:13:08.857Z,70.10
2017-06-29T00:15:37.090Z,70.10
2017-06-29T00:18:05.708Z,70.40
2017-06-29T00:20:34.969Z,70.50
2017-06-29T00:23:03.429Z,70.30
2017-06-29T00:25:31.561Z,70.30
2017-06-29T00:27:59.815Z,70.30
2017-06-29T00:30:28.054Z,70.30
2017-06-29T00:32:56.530Z,70.40
2017-06-29T00:35:24.871Z,70.40
2017-06-29T00:37:52.828Z,70.50
2017-06-29T00:40:21.110Z,70.60
2017-06-29T00:42:49.697Z,71.00
2017-06-29T00:45:18.045Z,71.00
2017-06-29T00:47:46.266Z,71.30
2017-06-29T00:50:14.956Z,71.30
2017-06-29T00:52:43.796Z,71.60
2017-06-29T00:55:12.251Z,71.60
2017-06-29T00:57:41.145Z,72.00
2017-06-29T01:00:10.076Z,72.30
2017-06-29T01:02:39.168Z,72.40
2017-06-29T01:05:07.453Z,72.40
2017-06-29T01:07:36.226Z,72.50
2017-06-29T01:10:04.746Z,72.60
2017-06-29T01:12:33.041Z,72.60
2017-06-29T01:15:01.520Z,72.60
2017-06-29T01:17:29.632Z,72.70
2017-06-29T01:19:57.906Z,72.80
2017-06-29T01:22:26.851Z,72.80
2017-06-29T01:24:58.269Z,72.80
2017-06-29T01:27:26.631Z,72.60
2017-06-29T01:29:55.292Z,72.40
2017-06-29T01:32:23.453Z,72.20
2017-06-29T01:34:52.547Z,72.10
2017-06-29T01:37:21.136Z,72.20
2017-06-29T01:39:49.708Z,72.20
2017-06-29T01:42:18.035Z,72.40
2017-06-29T01:44:46.343Z,72.60
2017-06-29T01:47:14.673Z,72.60
2017-06-29T01:49:43.210Z,72.60
2017-06-29T01:52:11.542Z,72.70
2017-06-29T01:54:40.042Z,73.00
2017-06-29T01:57:08.933Z,73.20
2017-06-29T01:59:37.431Z,73.50
2017-06-29T02:02:05.936Z,74.00
2017-06-29T02:04:35.548Z,74.10
2017-06-29T02:07:04.413Z,74.70
2017-06-29T02:09:33.353Z,74.80
2017-06-29T02:12:01.673Z,75.20
2017-06-29T02:14:30.004Z,75.60
2017-06-29T02:16:58.587Z,76.50
2017-06-29T02:19:27.192Z,76.50
2017-06-29T02:21:55.476Z,76.80
2017-06-29T02:24:23.983Z,77.30
2017-06-29T02:26:52.757Z,77.30
2017-06-29T02:29:20.980Z,77.80
2017-06-29T02:31:49.433Z,77.80
2017-06-29T02:34:18.157Z,78.40
2017-06-29T02:36:46.126Z,78.40
2017-06-29T02:39:14.190Z,78.60
2017-06-29T02:41:43.369Z,78.90
2017-06-29T02:44:11.794Z,79.20
2017-06-29T02:46:39.828Z,79.20
2017-06-29T02:49:08.130Z,79.40
2017-06-29T02:51:36.308Z,79.40
2017-06-29T02:54:04.327Z,79.20
2017-06-29T02:56:32.946Z,79.20
2017-06-29T02:59:00.952Z,79.20
2017-06-29T03:01:29.552Z,79.40
2017-06-29T03:03:57.946Z,79.60
2017-06-29T03:06:26.803Z,79.90
2017-06-29T03:08:55.093Z,80.00
2017-06-29T03:11:23.402Z,80.40
2017-06-29T03:13:51.114Z,80.60
2017-06-29T03:16:19.671Z,80.50
2017-06-29T03:18:48.396Z,80.50
2017-06-29T03:21:16.825Z,80.90
2017-06-29T03:23:45.138Z,80.90
2017-06-29T03:26:13.269Z,81.00
2017-06-29T03:28:41.468Z,81.10
2017-06-29T03:31:09.996Z,81.00
2017-06-29T03:33:38.900Z,81.00
2017-06-29T03:36:06.974Z,81.00
2017-06-29T03:38:34.974Z,81.20
2017-06-29T03:41:03.560Z,81.00
2017-06-29T03:43:31.796Z,81.00
2017-06-29T03:46:00.224Z,81.10
2017-06-29T03:48:28.650Z,81.10
2017-06-29T03:50:56.983Z,81.20
2017-06-29T03:53:25.084Z,81.10
2017-06-29T03:55:53.248Z,81.20
2017-06-29T03:58:21.899Z,81.30
2017-06-29T04:00:50.176Z,81.60
2017-06-29T04:03:18.810Z,81.50
2017-06-29T04:05:46.474Z,81.50
2017-06-29T04:08:15.136Z,81.30
2017-06-29T04:10:43.728Z,81.40
2017-06-29T04:13:12.746Z,81.40
2017-06-29T04:15:40.884Z,81.60
2017-06-29T04:18:09.512Z,81.40
2017-06-29T04:20:37.798Z,81.40
2017-06-29T04:23:07.234Z,81.50
2017-06-29T04:25:38.207Z,81.80
2017-06-29T04:28:06.656Z,81.90
2017-06-29T04:30:35.492Z,81.90
2017-06-29T04:33:03.946Z,81.90
2017-06-29T04:35:32.389Z,81.80
2017-06-29T04:38:01.123Z,81.80
2017-06-29T04:40:29.720Z,82.00
2017-06-29T04:42:57.790Z,82.20
2017-06-29T04:45:26.333Z,82.30
2017-06-29T04:47:54.992Z,82.10
2017-06-29T04:50:22.732Z,82.30
2017-06-29T04:52:50.926Z,82.40
2017-06-29T04:55:19.692Z,82.20
2017-06-29T04:57:47.659Z,82.20
2017-06-29T05:00:15.813Z,82.30
2017-06-29T05:02:43.641Z,82.30
2017-06-29T05:05:12.051Z,82.30
2017-06-29T05:07:39.931Z,82.60
2017-06-29T05:10:08.609Z,82.40
2017-06-29T05:12:37.089Z,82.40
2017-06-29T05:15:05.776Z,82.30
2017-06-29T05:17:33.655Z,82.30
2017-06-29T05:20:01.847Z,82.70
2017-06-29T05:22:29.892Z,82.40
2017-06-29T05:24:58.389Z,82.40
2017-06-29T05:27:27.293Z,82.10
2017-06-29T05:29:57.599Z,82.10
2017-06-29T05:32:28.996Z,82.10
2017-06-29T05:34:59.929Z,82.10
2017-06-29T05:37:31.534Z,81.70
2017-06-29T05:40:03.333Z,81.80
2017-06-29T05:42:34.206Z,81.80
2017-06-29T05:45:05.073Z,81.80
2017-06-29T05:47:34.615Z,81.80
2017-06-29T05:50:03.986Z,81.90
2017-06-29T05:52:32.788Z,81.90
2017-06-29T05:55:00.415Z,81.90
2017-06-29T05:57:28.304Z,81.70
2017-06-29T05:59:55.839Z,81.50
2017-06-29T06:02:23.322Z,81.60
2017-06-29T06:04:50.923Z,80.90
2017-06-29T06:07:18.389Z,80.90
2017-06-29T06:09:46.254Z,81.00
2017-06-29T06:12:13.765Z,81.00
2017-06-29T06:14:41.373Z,80.90
2017-06-29T06:17:08.868Z,81.00
2017-06-29T06:19:37.639Z,81.30
2017-06-29T06:22:05.154Z,81.30
2017-06-29T06:24:33.467Z,81.30
2017-06-29T06:27:00.972Z,81.00
2017-06-29T06:29:28.443Z,81.20
2017-06-29T06:31:55.915Z,81.20
2017-06-29T06:34:23.494Z,81.30
2017-06-29T06:36:50.933Z,81.50
2017-06-29T06:39:18.421Z,81.40
2017-06-29T06:41:45.953Z,81.50
2017-06-29T06:44:13.430Z,81.30
2017-06-29T06:46:40.902Z,81.60
2017-06-29T06:49:08.411Z,81.80
2017-06-29T06:51:36.926Z,81.40
2017-06-29T06:54:04.413Z,81.40
2017-06-29T06:56:31.916Z,81.30
2017-06-29T06:58:59.408Z,81.40
2017-06-29T07:01:26.886Z,81.30
2017-06-29T07:03:54.427Z,81.50
2017-06-29T07:06:22.373Z,81.80
2017-06-29T07:08:49.943Z,81.80
2017-06-29T07:11:17.493Z,81.40
2017-06-29T07:13:44.979Z,80.70
2017-06-29T07:16:12.748Z,80.70
2017-06-29T07:18:40.710Z,80.80
2017-06-29T07:21:08.271Z,80.80
2017-06-29T07:23:35.739Z,81.00
2017-06-29T07:26:03.282Z,81.00
2017-06-29T07:28:30.745Z,80.80
2017-06-29T07:30:58.229Z,80.50
2017-06-29T07:33:25.747Z,80.80
2017-06-29T07:35:53.244Z,80.90
2017-06-29T07:38:20.725Z,80.50
2017-06-29T07:40:48.656Z,80.40
2017-06-29T07:43:16.114Z,80.40
2017-06-29T07:45:43.582Z,79.80
2017-06-29T07:48:11.119Z,80.00
2017-06-29T07:50:38.636Z,80.00
2017-06-29T07:53:06.104Z,79.30
2017-06-29T07:55:33.604Z,78.70
2017-06-29T07:58:01.109Z,78.90
2017-06-29T08:00:28.619Z,78.70
2017-06-29T08:02:56.100Z,77.70
2017-06-29T08:05:25.100Z,78.70
2017-06-29T08:07:52.658Z,78.90
2017-06-29T08:10:20.577Z,78.90
2017-06-29T08:12:48.143Z,79.10
2017-06-29T08:15:15.916Z,78.80
2017-06-29T08:17:43.425Z,78.90
2017-06-29T08:20:10.909Z,78.50
2017-06-29T08:22:38.411Z,78.00
2017-06-29T08:25:05.968Z,78.60
2017-06-29T08:27:33.639Z,78.80
2017-06-29T08:30:01.276Z,77.80
2017-06-29T08:32:28.777Z,78.40
2017-06-29T08:34:56.885Z,79.10
2017-06-29T08:37:24.366Z,79.10
2017-06-29T08:39:51.827Z,78.50
2017-06-29T08:42:19.354Z,77.90
2017-06-29T08:44:47.308Z,77.90
2017-06-29T08:47:16.162Z,78.50
2017-06-29T08:49:43.710Z,78.50
2017-06-29T08:52:11.142Z,77.80
2017-06-29T08:54:39.140Z,77.50
2017-06-29T08:57:06.619Z,77.50
2017-06-29T08:59:34.131Z,77.60
2017-06-29T09:02:01.611Z,77.40
2017-06-29T09:04:29.144Z,78.00
2017-06-29T09:06:56.620Z,76.20
2017-06-29T09:09:24.094Z,76.40
2017-06-29T09:11:51.653Z,76.50
2017-06-29T09:14:19.538Z,75.10
2017-06-29T09:16:47.280Z,75.10
2017-06-29T09:19:15.151Z,76.10
2017-06-29T09:21:43.302Z,75.10
2017-06-29T09:24:11.437Z,75.10
2017-06-29T09:26:38.943Z,75.90
2017-06-29T09:29:06.438Z,75.10
2017-06-29T09:31:34.775Z,74.30
2017-06-29T09:34:02.323Z,74.40
2017-06-29T09:36:30.846Z,75.00
2017-06-29T09:38:58.824Z,73.30
2017-06-29T09:41:26.757Z,73.60
2017-06-29T09:43:54.292Z,73.60
2017-06-29T09:46:21.851Z,73.70
2017-06-29T09:48:49.449Z,74.10
2017-06-29T09:51:16.954Z,73.80
2017-06-29T09:53:44.643Z,73.30
2017-06-29T09:56:12.539Z,71.90
2017-06-29T09:58:40.037Z,71.80
2017-06-29T10:01:07.908Z,71.90
2017-06-29T10:03:35.789Z,72.70
2017-06-29T10:06:03.622Z,73.10
2017-06-29T10:08:31.374Z,73.50
2017-06-29T10:10:58.945Z,72.80
2017-06-29T10:13:26.988Z,71.30
2017-06-29T10:15:54.487Z,70.90
2017-06-29T10:18:21.990Z,70.90
2017-06-29T10:20:49.493Z,71.10
2017-06-29T10:23:17.866Z,70.90
2017-06-29T10:25:46.303Z,70.00
2017-06-29T10:28:14.412Z,70.00
2017-06-29T10:30:42.685Z,69.20
2017-06-29T10:33:10.174Z,69.90
2017-06-29T10:35:38.113Z,68.60
2017-06-29T10:38:05.668Z,68.60
2017-06-29T10:40:33.124Z,68.40
2017-06-29T10:43:01.069Z,68.00
2017-06-29T10:58:20.373Z,66.90
2017-06-29T11:00:47.878Z,66.90
2017-06-29T11:03:16.559Z,65.90
2017-06-29T11:05:44.463Z,66.30
2017-06-29T11:08:12.007Z,66.30
2017-06-29T11:10:39.907Z,66.30
2017-06-29T11:13:07.477Z,66.30
2017-06-29T11:15:35.078Z,64.80
2017-06-29T11:18:02.601Z,64.40
2017-06-29T11:20:30.139Z,64.30
2017-06-29T11:25:47.180Z,63.70
2017-06-29T11:28:14.659Z,63.60
2017-06-29T11:30:42.177Z,64.00
2017-06-29T11:33:10.121Z,62.50
2017-06-29T11:35:37.621Z,62.50
2017-06-29T11:38:05.722Z,62.20
2017-06-29T11:40:33.392Z,62.20
2017-06-29T11:43:01.025Z,62.50
2017-06-29T11:45:28.984Z,60.70
2017-06-29T11:47:57.143Z,60.70
2017-06-29T11:50:25.343Z,61.10
2017-06-29T11:52:53.664Z,60.70
2017-06-29T11:55:22.012Z,60.60
2017-06-29T11:57:50.505Z,59.60
2017-06-29T12:00:18.445Z,59.70
2017-06-29T12:02:47.039Z,59.50
2017-06-29T12:05:14.492Z,59.90
2017-06-29T12:07:43.041Z,60.00
2017-06-29T12:10:10.530Z,60.30
2017-06-29T12:12:38.277Z,60.60
2017-06-29T12:15:06.579Z,58.00
2017-06-29T12:17:35.097Z,58.70
2017-06-29T12:20:02.670Z,59.10
2017-06-29T12:22:31.026Z,58.80
2017-06-29T12:24:58.829Z,59.60
2017-06-29T12:27:27.035Z,59.30
2017-06-29T12:29:55.334Z,59.30
2017-06-29T12:32:23.433Z,59.80
2017-06-29T12:34:50.912Z,58.70
2017-06-29T12:37:19.086Z,57.70
2017-06-29T12:39:46.819Z,57.70
2017-06-29T12:42:14.349Z,57.30
2017-06-29T12:44:42.210Z,57.60
2017-06-29T12:47:11.084Z,57.60
2017-06-29T12:49:39.212Z,57.70
2017-06-29T12:52:06.723Z,58.80
2017-06-29T12:54:34.248Z,57.10
2017-06-29T12:57:01.760Z,56.20
2017-06-29T12:59:29.788Z,56.10
2017-06-29T13:01:57.372Z,56.10
2017-06-29T13:04:24.876Z,56.50
2017-06-29T13:06:52.775Z,56.50
2017-06-29T13:09:20.335Z,56.40
2017-06-29T13:11:48.087Z,56.40
2017-06-29T13:14:16.949Z,56.20
2017-06-29T13:16:44.464Z,56.20
2017-06-29T13:19:12.362Z,55.80
2017-06-29T13:21:39.854Z,55.40
2017-06-29T13:24:07.373Z,55.50
2017-06-29T13:26:35.423Z,56.10
2017-06-29T13:29:03.224Z,56.20
2017-06-29T13:31:30.875Z,55.00
2017-06-29T13:33:58.411Z,54.80
2017-06-29T13:36:26.001Z,54.90
2017-06-29T13:38:53.982Z,55.70
2017-06-29T13:41:21.829Z,53.90
2017-06-29T13:43:49.718Z,54.10
2017-06-29T13:46:17.353Z,54.10
2017-06-29T13:48:45.273Z,54.20
2017-06-29T13:51:12.793Z,54.20
2017-06-29T13:53:40.713Z,53.00
2017-06-29T13:56:08.191Z,53.00
2017-06-29T13:58:35.676Z,53.40
2017-06-29T14:01:03.599Z,53.90
2017-06-29T14:03:31.104Z,53.90
2017-06-29T14:05:58.594Z,52.10
2017-06-29T14:08:26.679Z,52.70
2017-06-29T14:10:54.607Z,51.90
2017-06-29T14:13:22.153Z,51.90
2017-06-29T14:15:49.653Z,51.40
2017-06-29T14:18:17.126Z,50.40
2017-06-29T14:20:44.613Z,51.10
2017-06-29T14:23:12.144Z,51.10
2017-06-29T14:25:39.668Z,50.60
2017-06-29T14:28:07.910Z,49.30
2017-06-29T14:30:36.215Z,49.20
2017-06-29T14:33:03.730Z,49.20
2017-06-29T14:35:31.364Z,50.30
2017-06-29T14:37:58.877Z,49.50
2017-06-29T14:40:26.372Z,49.40
2017-06-29T14:42:53.895Z,49.70
2017-06-29T14:45:21.797Z,49.80
2017-06-29T14:47:49.290Z,49.80
2017-06-29T14:50:16.801Z,50.20
2017-06-29T14:52:45.043Z,49.90
2017-06-29T14:55:12.557Z,49.90
2017-06-29T14:57:40.045Z,50.10
2017-06-29T15:00:07.576Z,50.20
2017-06-29T15:02:35.475Z,50.00
2017-06-29T15:05:02.943Z,50.00
2017-06-29T15:07:30.496Z,50.50
2017-06-29T15:09:58.545Z,51.30
2017-06-29T15:12:26.421Z,51.50
2017-06-29T15:14:53.969Z,51.50
2017-06-29T15:17:21.530Z,51.00
2017-06-29T15:19:49.622Z,51.80
2017-06-29T15:22:17.292Z,51.80
2017-06-29T15:24:45.138Z,52.50
2017-06-29T15:27:13.131Z,54.20
2017-06-29T15:29:41.021Z,55.10
2017-06-29T15:32:08.502Z,55.10
2017-06-29T15:34:36.074Z,55.50
2017-06-29T15:37:03.623Z,56.20
2017-06-29T15:39:31.127Z,56.70
2017-06-29T15:41:58.635Z,56.90
2017-06-29T15:44:26.249Z,57.50
2017-06-29T15:46:53.784Z,57.30
2017-06-29T15:49:21.295Z,57.50
2017-06-29T15:51:48.754Z,57.60
2017-06-29T15:54:16.602Z,56.40
2017-06-29T15:56:44.512Z,56.40
2017-06-29T15:59:11.999Z,56.80
2017-06-29T16:01:39.464Z,56.40
2017-06-29T16:04:06.943Z,56.80
2017-06-29T16:06:34.431Z,57.30
2017-06-29T16:09:01.891Z,57.20
2017-06-29T16:11:29.333Z,57.40
2017-06-29T16:13:56.827Z,56.80
2017-06-29T16:16:24.658Z,57.30
2017-06-29T16:18:53.103Z,57.30
2017-06-29T16:21:20.762Z,58.10
2017-06-29T16:23:48.941Z,58.80
2017-06-29T16:26:17.025Z,59.70
2017-06-29T16:28:44.508Z,59.70
2017-06-29T16:31:11.972Z,60.00
2017-06-29T16:33:39.447Z,59.90
2017-06-29T16:36:07.009Z,60.10
2017-06-29T16:38:34.656Z,60.30
2017-06-29T16:41:02.332Z,60.80
2017-06-29T16:43:30.986Z,61.40
2017-06-29T16:45:58.434Z,62.40
2017-06-29T16:48:25.911Z,63.40
2017-06-29T16:50:53.929Z,63.10
2017-06-29T16:53:21.420Z,63.20
2017-06-29T16:55:48.914Z,62.90
2017-06-29T16:58:16.869Z,61.30
2017-06-29T17:00:44.395Z,61.30
2017-06-29T17:03:11.930Z,58.90
2017-06-29T17:05:39.520Z,57.60
2017-06-29T17:08:08.306Z,57.10
2017-06-29T17:10:35.924Z,57.00
2017-06-29T17:13:03.826Z,57.80
2017-06-29T17:15:31.302Z,57.90
2017-06-29T17:17:58.744Z,58.40
2017-06-29T17:20:26.208Z,59.20
2017-06-29T17:22:53.655Z,59.80
2017-06-29T17:25:21.524Z,60.90
2017-06-29T17:27:49.451Z,61.50
2017-06-29T17:30:16.896Z,61.50
2017-06-29T17:32:44.352Z,61.80
2017-06-29T17:35:11.813Z,62.30
2017-06-29T17:37:39.255Z,62.40
2017-06-29T17:40:06.698Z,62.40
2017-06-29T17:42:34.234Z,62.20
2017-06-29T17:45:01.676Z,62.60
2017-06-29T17:47:29.127Z,62.60
2017-06-29T17:49:56.608Z,62.60
2017-06-29T17:52:24.454Z,62.10
2017-06-29T17:54:51.903Z,62.00
2017-06-29T17:57:19.783Z,62.10
2017-06-29T17:59:47.238Z,62.10
2017-06-29T18:02:14.689Z,61.80
2017-06-29T18:04:42.548Z,61.50
2017-06-29T18:07:11.958Z,61.60
2017-06-29T18:09:39.881Z,61.80
2017-06-29T18:12:08.163Z,61.80
2017-06-29T18:14:35.612Z,62.00
2017-06-29T18:17:03.053Z,62.60
2017-06-29T18:19:30.514Z,63.10
2017-06-29T18:21:57.971Z,64.00
2017-06-29T18:24:25.896Z,64.90
2017-06-29T18:26:53.369Z,64.80
2017-06-29T18:29:20.820Z,65.60
2017-06-29T18:31:48.279Z,66.00
2017-06-29T18:34:15.740Z,66.20
2017-06-29T18:36:43.211Z,65.10
2017-06-29T18:39:11.353Z,65.40
2017-06-29T18:41:39.127Z,65.20
2017-06-29T18:44:06.587Z,65.50
2017-06-29T18:46:34.059Z,65.20
2017-06-29T18:49:01.549Z,65.40
2017-06-29T18:51:29.023Z,65.30
2017-06-29T18:53:56.470Z,65.30
2017-06-29T18:56:24.757Z,65.60
2017-06-29T18:58:52.229Z,65.80
2017-06-29T19:01:19.718Z,65.70
2017-06-29T19:03:47.617Z,65.50
2017-06-29T19:06:15.060Z,65.50
2017-06-29T19:08:42.519Z,66.00
2017-06-29T19:11:10.855Z,66.50
2017-06-29T19:13:38.323Z,66.40
2017-06-29T19:16:05.789Z,66.60
2017-06-29T19:18:33.359Z,66.40
2017-06-29T19:21:00.828Z,66.60
2017-06-29T19:23:28.473Z,66.80
2017-06-29T19:25:55.958Z,67.20
2017-06-29T19:28:23.968Z,67.30
2017-06-29T19:30:52.353Z,67.20
2017-06-29T19:33:19.809Z,67.30
2017-06-29T19:35:47.258Z,67.40
2017-06-29T19:38:14.716Z,67.30
2017-06-29T19:40:42.604Z,67.70
2017-06-29T19:43:10.057Z,67.70
2017-06-29T19:45:38.061Z,67.90
2017-06-29T19:48:05.520Z,67.90
2017-06-29T19:50:32.983Z,67.90
2017-06-29T19:53:00.477Z,68.00
2017-06-29T19:55:27.948Z,68.10
2017-06-29T19:57:55.399Z,68.20
2017-06-29T20:00:22.986Z,66.80
2017-06-29T20:02:50.556Z,66.00
2017-06-29T20:05:18.403Z,65.50
2017-06-29T20:07:45.847Z,65.50
2017-06-29T20:10:13.736Z,65.70
2017-06-29T20:12:41.176Z,65.90
2017-06-29T20:15:08.635Z,66.50
2017-06-29T20:17:36.163Z,67.30
2017-06-29T20:20:03.613Z,67.20
2017-06-29T20:22:31.460Z,67.50
2017-06-29T20:24:58.970Z,67.50
2017-06-29T20:27:26.432Z,67.70
2017-06-29T20:29:53.888Z,67.70
2017-06-29T20:32:21.380Z,67.90
2017-06-29T20:34:48.840Z,67.70
2017-06-29T20:37:16.289Z,67.90
2017-06-29T20:39:43.787Z,67.90
2017-06-29T20:42:11.618Z,68.20
2017-06-29T20:44:39.649Z,68.50
2017-06-29T20:47:07.136Z,68.40
2017-06-29T20:49:35.087Z,68.60
2017-06-29T20:52:02.986Z,68.60
2017-06-29T20:54:30.868Z,68.70
2017-06-29T20:56:58.307Z,68.70
2017-06-29T20:59:26.307Z,68.90
2017-06-29T21:01:53.800Z,68.90
2017-06-29T21:04:21.470Z,69.00
2017-06-29T21:06:48.938Z,69.30
2017-06-29T21:09:16.461Z,69.60
2017-06-29T21:11:43.911Z,69.90
2017-06-29T21:14:11.458Z,69.80
2017-06-29T21:16:39.081Z,69.90
2017-06-29T21:19:06.552Z,70.00
2017-06-29T21:21:34.304Z,69.90
2017-06-29T21:24:01.793Z,70.00
2017-06-29T21:26:29.307Z,70.20
2017-06-29T21:28:56.796Z,70.50
2017-06-29T21:31:24.289Z,70.60
2017-06-29T21:33:51.748Z,70.40
2017-06-29T21:36:19.238Z,70.50
2017-06-29T21:38:47.081Z,70.60
2017-06-29T21:41:14.740Z,70.60
2017-06-29T21:43:42.221Z,70.50
2017-06-29T21:46:09.688Z,70.80
2017-06-29T21:48:37.179Z,71.10
2017-06-29T21:51:04.703Z,70.90
2017-06-29T21:53:32.179Z,70.80
2017-06-29T21:55:59.927Z,70.80
2017-06-29T21:58:27.482Z,70.90
2017-06-29T22:00:54.935Z,71.00
2017-06-29T22:03:23.204Z,71.40
2017-06-29T22:05:50.661Z,71.60
2017-06-29T22:08:18.131Z,71.80
2017-06-29T22:10:45.597Z,71.90
2017-06-29T22:13:13.067Z,72.20
2017-06-29T22:15:40.758Z,72.30
2017-06-29T22:18:08.218Z,72.40
2017-06-29T22:20:35.682Z,72.40
2017-06-29T22:23:03.195Z,72.40
2017-06-29T22:25:30.640Z,72.60
2017-06-29T22:27:58.098Z,72.80
2017-06-29T22:30:25.597Z,73.10
2017-06-29T22:32:53.065Z,73.10
2017-06-29T22:35:20.536Z,73.10
2017-06-29T22:37:48.043Z,73.20
2017-06-29T22:40:16.211Z,73.40
2017-06-29T22:42:44.058Z,73.60
2017-06-29T22:45:11.827Z,73.60
2017-06-29T22:47:39.296Z,73.70
2017-06-29T22:50:06.761Z,73.70
2017-06-29T22:52:34.225Z,73.90
2017-06-29T22:55:02.078Z,73.80
2017-06-29T22:57:30.135Z,73.80
2017-06-29T22:59:57.923Z,73.90
2017-06-29T23:02:25.381Z,74.10
2017-06-29T23:04:52.834Z,74.20
2017-06-29T23:07:20.304Z,74.20
2017-06-29T23:09:47.740Z,74.40
2017-06-29T23:12:15.812Z,74.40
2017-06-29T23:14:43.440Z,74.40
2017-06-29T23:17:11.210Z,74.40
2017-06-29T23:19:39.110Z,74.40
2017-06-29T23:22:06.670Z,74.40
2017-06-29T23:24:34.142Z,74.40
2017-06-29T23:27:01.601Z,74.40
2017-06-29T23:29:29.073Z,74.40
2017-06-29T23:31:56.521Z,74.20
2017-06-29T23:34:23.978Z,74.40
2017-06-29T23:36:51.463Z,74.40
2017-06-29T23:39:19.266Z,74.30
2017-06-29T23:41:46.708Z,74.10
2017-06-29T23:44:14.189Z,74.30
2017-06-29T23:46:41.636Z,74.10
2017-06-29T23:49:09.090Z,73.90
2017-06-29T23:51:37.692Z,73.80
2017-06-29T23:54:05.154Z,73.70
2017-06-29T23:56:32.623Z,73.80
2017-06-29T23:59:00.208Z,74.00
